createdAt,value
2018-08-04T00:04:54.784Z,14.66
2018-08-04T00:10:49.790Z,16.6
2018-08-04T00:16:44.789Z,15.48
2018-08-04T00:22:39.796Z,17.86
2018-08-04T00:28:34.818Z,15.32
2018-08-04T00:34:29.789Z,13.98
2018-08-04T00:40:24.829Z,17.1
2018-08-04T00:46:19.832Z,13.81
2018-08-04T00:52:14.833Z,16.32
2018-08-04T00:58:09.851Z,13.51
2018-08-04T01:04:04.818Z,18.13
2018-08-04T01:09:59.843Z,16.47
2018-08-04T01:15:54.842Z,16
2018-08-04T01:21:49.843Z,14.44
2018-08-04T01:27:44.865Z,13.87
2018-08-04T01:33:39.853Z,17.19
2018-08-04T01:39:34.850Z,17.08
2018-08-04T01:45:29.860Z,13.14
2018-08-04T01:51:24.885Z,13.74
2018-08-04T01:57:19.871Z,13.07
2018-08-04T02:03:14.909Z,15.21
2018-08-04T02:09:09.888Z,16.25
2018-08-04T02:15:04.873Z,16.31
2018-08-04T02:20:59.890Z,16.33
2018-08-04T02:26:54.891Z,16.1
2018-08-04T02:32:49.893Z,16.82
2018-08-04T02:38:44.942Z,16.1
2018-08-04T02:44:39.955Z,13.91
2018-08-04T02:50:34.921Z,12.9
2018-08-04T02:56:29.901Z,11.1
2018-08-04T03:02:24.913Z,11.97
2018-08-04T03:08:19.933Z,13.55
2018-08-04T03:14:14.898Z,10.77
2018-08-04T03:20:09.927Z,11.16
2018-08-04T03:26:04.947Z,12.65
2018-08-04T03:31:59.931Z,12.67
2018-08-04T03:37:54.983Z,14.61
2018-08-04T03:43:49.959Z,15.05
2018-08-04T03:49:44.954Z,14.16
2018-08-04T03:55:39.961Z,14.32
2018-08-04T04:01:34.985Z,12.31
2018-08-04T04:07:29.971Z,11.31
2018-08-04T04:13:24.966Z,15.38
2018-08-04T04:19:19.995Z,15.55
2018-08-04T04:25:14.994Z,13.79
2018-08-04T04:31:10.008Z,11.69
2018-08-04T04:37:04.995Z,14.4
2018-08-04T04:43:00.018Z,12.01
2018-08-04T04:48:54.997Z,13.67
2018-08-04T04:54:50.036Z,16.2
2018-08-04T05:00:45.036Z,12.38
2018-08-04T05:06:40.007Z,14.86
2018-08-04T05:12:35.012Z,15.57
2018-08-04T05:18:30.078Z,14.99
2018-08-04T05:24:25.028Z,13.53
2018-08-04T05:30:20.013Z,14.35
2018-08-04T05:36:15.030Z,15.24
2018-08-04T05:42:10.046Z,12.76
2018-08-04T05:48:05.060Z,11.9
2018-08-04T05:54:00.051Z,11.9
2018-08-04T05:59:55.055Z,12.06
2018-08-04T06:05:50.037Z,14.73
2018-08-04T06:11:45.060Z,16.57
2018-08-04T06:17:40.092Z,15.54
2018-08-04T06:23:35.090Z,13.15
2018-08-04T06:29:30.092Z,10.72
2018-08-04T06:35:25.084Z,11.61
2018-08-04T06:41:20.071Z,13.08
2018-08-04T06:47:15.078Z,12.68
2018-08-04T06:53:10.077Z,13.39
2018-08-04T06:59:05.082Z,11.92
2018-08-04T07:05:00.099Z,13.81
2018-08-04T07:10:55.093Z,12.66
2018-08-04T07:16:50.110Z,14.27
2018-08-04T07:22:45.156Z,9.53
2018-08-04T07:28:40.097Z,10.98
2018-08-04T07:34:35.117Z,9.1
2018-08-04T07:40:30.239Z,8.87
2018-08-04T07:46:25.139Z,12.25
2018-08-04T07:52:20.150Z,12.04
2018-08-04T07:58:15.132Z,9.67
2018-08-04T08:04:10.135Z,11.43
2018-08-04T08:10:05.150Z,11.18
2018-08-04T08:16:00.247Z,8.83
2018-08-04T08:21:55.162Z,8.52
2018-08-04T08:27:50.161Z,7.98
2018-08-04T08:33:45.224Z,6.61
2018-08-04T08:39:40.209Z,9.71
2018-08-04T08:45:35.227Z,9.77
2018-08-04T08:51:30.181Z,8.67
2018-08-04T08:57:25.199Z,9.42
2018-08-04T09:03:20.185Z,8.32
2018-08-04T09:09:15.383Z,6.36
2018-08-04T09:15:10.235Z,7.7
2018-08-04T09:21:05.212Z,6.97
2018-08-04T09:27:00.209Z,7.03
2018-08-04T09:32:55.202Z,12.6
2018-08-04T09:38:50.251Z,8.5
2018-08-04T09:44:45.211Z,6.93
2018-08-04T09:50:40.217Z,6.71
2018-08-04T09:56:35.251Z,7.46
2018-08-04T10:02:30.216Z,6.84
2018-08-04T10:08:25.231Z,9.13
2018-08-04T10:14:20.286Z,12.85
2018-08-04T10:20:15.327Z,9.28
2018-08-04T10:26:10.357Z,9.3
2018-08-04T10:32:05.462Z,8.64
2018-08-04T10:38:00.286Z,9.49
2018-08-04T10:43:55.360Z,6.41
2018-08-04T10:49:50.291Z,8.83
2018-08-04T10:55:45.303Z,6.64
2018-08-04T11:01:40.325Z,6.68
2018-08-04T11:07:35.345Z,5.86
2018-08-04T11:13:30.325Z,5.64
2018-08-04T11:19:25.322Z,6
2018-08-04T11:25:20.364Z,6.01
2018-08-04T11:31:15.395Z,6.8
2018-08-04T11:37:10.316Z,5.44
2018-08-04T11:43:05.309Z,5.76
2018-08-04T11:49:00.419Z,6.59
2018-08-04T11:54:55.335Z,5.81
2018-08-04T12:00:50.336Z,7.65
2018-08-04T12:06:45.349Z,7.63
2018-08-04T12:12:40.325Z,5.96
2018-08-04T12:18:35.387Z,8.31
2018-08-04T12:24:30.356Z,6.59
2018-08-04T12:30:25.345Z,6.69
2018-08-04T12:36:20.348Z,6.08
2018-08-04T12:42:15.395Z,7.49
2018-08-04T12:48:10.385Z,7.68
2018-08-04T12:54:05.359Z,7
2018-08-04T13:00:00.368Z,7.99
2018-08-04T13:05:55.403Z,7.41
2018-08-04T13:11:50.413Z,8.93
2018-08-04T13:17:45.405Z,6.34
2018-08-04T13:23:40.406Z,6.78
2018-08-04T13:29:35.415Z,6.17
2018-08-04T13:35:30.424Z,6.15
2018-08-04T13:41:25.403Z,7.7
2018-08-04T13:47:20.401Z,7.91
2018-08-04T13:53:15.417Z,7.24
2018-08-04T13:59:10.461Z,9.41
2018-08-04T14:05:05.428Z,7.91
2018-08-04T14:11:00.441Z,7.4
2018-08-04T14:16:55.456Z,8.43
2018-08-04T14:22:50.474Z,6.77
2018-08-04T14:28:45.511Z,8.23
2018-08-04T14:34:40.460Z,7.02
2018-08-04T14:40:35.443Z,7.82
2018-08-04T14:46:30.498Z,6.58
2018-08-04T14:52:25.470Z,7.41
2018-08-04T14:58:20.472Z,8.03
2018-08-04T15:04:15.475Z,8.06
2018-08-04T15:10:10.578Z,9.2
2018-08-04T15:16:05.479Z,10.86
2018-08-04T15:22:00.509Z,12.24
2018-08-04T15:27:55.492Z,6.41
2018-08-04T15:33:50.499Z,8.49
2018-08-04T15:39:45.513Z,7.43
2018-08-04T15:45:40.490Z,8.46
2018-08-04T15:51:35.517Z,6.34
2018-08-04T15:57:30.564Z,7.3
2018-08-04T16:03:25.529Z,9.66
2018-08-04T16:09:20.522Z,7.62
2018-08-04T16:15:15.526Z,7.41
2018-08-04T16:21:10.546Z,7.6
2018-08-04T16:27:05.551Z,10.35
2018-08-04T16:33:00.559Z,9.04
2018-08-04T16:38:55.605Z,6.97
2018-08-04T16:44:50.536Z,8.06
2018-08-04T16:50:45.547Z,7.82
2018-08-04T16:56:40.620Z,8.23
2018-08-04T17:02:35.597Z,8.55
2018-08-04T17:08:30.605Z,8.15
2018-08-04T17:14:25.575Z,8.06
2018-08-04T17:20:20.590Z,8.53
2018-08-04T17:26:15.597Z,8.81
2018-08-04T17:32:10.626Z,9.53
2018-08-04T17:38:05.596Z,7.63
2018-08-04T17:44:00.598Z,9.36
2018-08-04T17:49:55.632Z,9.71
2018-08-04T17:55:50.613Z,9.35
2018-08-04T18:01:45.616Z,10.42
2018-08-04T18:07:40.636Z,9.95
2018-08-04T18:13:35.630Z,11.64
2018-08-04T18:19:30.628Z,9.94
2018-08-04T18:25:25.616Z,11.55
2018-08-04T18:31:20.634Z,14.08
2018-08-04T18:37:15.682Z,11.3
2018-08-04T18:43:10.686Z,13.49
2018-08-04T18:49:05.674Z,11.11
2018-08-04T18:55:00.657Z,14.53
2018-08-04T19:00:55.699Z,10.72
2018-08-04T19:06:50.721Z,10.77
2018-08-04T19:12:45.675Z,11.79
2018-08-04T19:18:40.674Z,11.09
2018-08-04T19:24:35.673Z,10.01
2018-08-04T19:30:30.672Z,13.48
2018-08-04T19:36:25.824Z,11.29
2018-08-04T19:42:20.684Z,11.55
2018-08-04T19:48:15.797Z,11.16
2018-08-04T19:54:10.705Z,12.93
2018-08-04T20:00:05.741Z,13.09
2018-08-04T20:06:00.704Z,13.74
2018-08-04T20:11:55.709Z,9.87
2018-08-04T20:17:50.803Z,10.34
2018-08-04T20:23:45.742Z,11.19
2018-08-04T20:29:40.814Z,11.71
2018-08-04T20:35:35.756Z,11.83
2018-08-04T20:41:30.741Z,11.41
2018-08-04T20:47:25.755Z,10.36
2018-08-04T20:53:20.737Z,10.63
2018-08-04T20:59:15.784Z,9.99
2018-08-04T21:05:10.780Z,10.88
2018-08-04T21:11:05.755Z,10.4
2018-08-04T21:17:00.766Z,10.46
2018-08-04T21:22:55.829Z,10.17
2018-08-04T21:28:50.774Z,10.74
2018-08-04T21:34:45.782Z,12.32
2018-08-04T21:40:40.809Z,11.1
2018-08-04T21:46:35.798Z,11.22
2018-08-04T21:52:30.787Z,10.86
2018-08-04T21:58:25.795Z,9.47
2018-08-04T22:04:20.791Z,9.85
2018-08-04T22:10:15.808Z,15.76
2018-08-04T22:16:10.840Z,10.69
2018-08-04T22:22:05.812Z,9.87
2018-08-04T22:28:00.807Z,12.94
2018-08-04T22:33:55.816Z,11.44
2018-08-04T22:39:50.826Z,13.03
2018-08-04T22:45:45.893Z,10.35
2018-08-04T22:51:40.836Z,11.03
2018-08-04T22:57:35.870Z,9.44
2018-08-04T23:03:30.846Z,11.7
2018-08-04T23:09:25.832Z,10.44
2018-08-04T23:15:20.837Z,11.77
2018-08-04T23:21:15.868Z,12.83
2018-08-04T23:27:10.870Z,10.27
2018-08-04T23:33:05.881Z,8.61
2018-08-04T23:39:00.849Z,12.25
2018-08-04T23:44:55.922Z,11.57
2018-08-04T23:50:50.931Z,11.26
2018-08-04T23:56:45.867Z,11.88
